sensor_id;sensor_type;location;lat;lon;timestamp;pressure;altitude;pressure_sealevel;temperature;humidity
71642;BME280;60657;50.122;14.468;2023-05-15T00:01:21;97789.93293452088;;;12.844663157091631;85.24513618677042
71642;BME280;60657;50.122;14.468;2023-05-15T00:04:32;97789.05402743952;;;12.86335545891508;84.8083466849775
71642;BME280;60657;50.122;14.468;2023-05-15T00:07:45;97785.04419154656;;;12.769893949797819;84.81025406271458
71642;BME280;60657;50.122;14.468;2023-05-15T00:10:57;97772.76699944773;;;12.668421454184788;84.90180819409476
71642;BME280;60657;50.122;14.468;2023-05-15T00:14:08;97776.96653746195;;;12.663080796520944;85.07537956816968
71642;BME280;60657;50.122;14.468;2023-05-15T00:17:19;97771.17267248346;;;12.588311589227132;85.36339360646983
71642;BME280;60657;50.122;14.468;2023-05-15T00:20:30;97767.93017243031;;;12.558937972075988;85.47402151522087
71642;BME280;60657;50.122;14.468;2023-05-15T00:23:41;97757.14079174974;;;12.55626764324407;85.62088960097658
71642;BME280;60657;50.122;14.468;2023-05-15T00:26:53;97762.08369083624;;;12.540245670252538;85.84405279621576
71642;BME280;60657;50.122;14.468;2023-05-15T00:30:04;97760.40942068055;;;12.582970931563288;85.69336995498588
71642;BME280;60657;50.122;14.468;2023-05-15T00:33:20;97759.66519252693;;;12.55626764324407;86.06530861371786
71642;BME280;60657;50.122;14.468;2023-05-15T00:36:31;97757.88455607799;;;12.59899290455482;86.02525368123904
71642;BME280;60657;50.122;14.468;2023-05-15T00:39:43;97742.92278407361;;;12.623025864042113;85.84977492942703
71642;BME280;60657;50.122;14.468;2023-05-15T00:42:55;97750.39010102236;;;12.628366521705956;85.80590524147402
71642;BME280;60657;50.122;14.468;2023-05-15T00:46:07;97732.90311455503;;;12.604333562218663;85.55413138017853
71642;BME280;60657;50.122;14.468;2023-05-15T00:49:20;97739.62813647072;;;12.59098191805905;85.69909208819715
71642;BME280;60657;50.122;14.468;2023-05-15T00:52:32;97733.06594001841;;;12.53223468375677;86.06340123598078
71642;BME280;60657;50.122;14.468;2023-05-15T00:55:44;97738.00781204482;;;12.542915999084457;85.93942168307011
71642;BME280;60657;50.122;14.468;2023-05-15T00:58:56;97729.02792584781;;;12.390707255664914;86.28274967574579
71642;BME280;60657;50.122;14.468;2023-05-15T01:02:16;97727.32736173134;;;12.430762188143738;86.265583276112
71642;BME280;60657;50.122;14.468;2023-05-15T01:05:28;97721.37336826859;;;12.508201724269476;86.14351110093843
71642;BME280;60657;50.122;14.468;2023-05-15T01:08:41;97728.04334133197;;;12.500190737773707;86.17593652246892
71642;BME280;60657;50.122;14.468;2023-05-15T01:11:54;97718.90280220628;;;12.518883039597164;86.03288319218738
71642;BME280;60657;50.122;14.468;2023-05-15T01:15:09;97729.71757555254;;;12.497520408941789;86.0309758144503
71642;BME280;60657;50.122;14.468;2023-05-15T01:18:21;97721.40059248457;;;12.492179751277945;86.09010452429999
71642;BME280;60657;50.122;14.468;2023-05-15T01:21:42;97715.6899866165;;;12.42809185931182;86.21789883268482
71642;BME280;60657;50.122;14.468;2023-05-15T01:26:22;97714.09661499236;;;12.398718242160676;86.3399710078584
71642;BME280;60657;50.122;14.468;2023-05-15T01:30:07;97711.65269355997;;;12.34264133669032;86.22362096589609
71642;BME280;60657;50.122;14.468;2023-05-15T01:33:27;97712.60840330418;;;12.331960021362633;86.35141527428092
71642;BME280;60657;50.122;14.468;2023-05-15T01:36:45;97709.36627210584;;;12.235828183413446;86.41626611734188
71642;BME280;60657;50.122;14.468;2023-05-15T01:40:02;97712.81539716205;;;12.203784237430384;86.6642252231632
71642;BME280;60657;50.122;14.468;2023-05-15T01:43:21;97705.42799850876;;;12.139696345464259;86.74242771038377
71642;BME280;60657;50.122;14.468;2023-05-15T01:46:38;97701.25905460304;;;12.083619439993896;86.80346379797055
71642;BME280;60657;50.122;14.468;2023-05-15T01:49:55;97698.86426350179;;;12.078278782330052;86.93698023956664
71642;BME280;60657;50.122;14.468;2023-05-15T01:53:13;97697.93918784508;;;12.118333714808884;86.900740062562
71642;BME280;60657;50.122;14.468;2023-05-15T01:56:28;97688.10721764709;;;12.072938124666209;87.07812619211109
71642;BME280;60657;50.122;14.468;2023-05-15T01:59:41;97698.19025914671;;;11.976806286717022;87.30319676508736
71642;BME280;60657;50.122;14.468;2023-05-15T02:02:56;97693.12413111042;;;11.987487602044709;87.42526894026093
71642;BME280;60657;50.122;14.468;2023-05-15T02:06:09;97691.35069336063;;;12.080949111161978;87.36423285267415
71642;BME280;60657;50.122;14.468;2023-05-15T02:09:21;97687.10483789086;;;12.110322728313115;87.24406805523766
71642;BME280;60657;50.122;14.468;2023-05-15T02:12:34;97684.5304341094;;;12.209124895094227;86.98657206073091
71642;BME280;60657;50.122;14.468;2023-05-15T02:15:47;97682.03396487173;;;12.142366674296177;87.2669565880827
71642;BME280;60657;50.122;14.468;2023-05-15T02:18:59;97677.06733066452;;;12.139696345464259;87.16205081254292
71642;BME280;60657;50.122;14.468;2023-05-15T02:22:10;97682.85738154032;;;12.177080949111165;86.8263523308156
71642;BME280;60657;50.122;14.468;2023-05-15T02:25:24;97674.57092645085;;;12.171740291447321;86.72907606622415
71642;BME280;60657;50.122;14.468;2023-05-15T02:28:46;97677.04103284479;;;12.15571831845579;86.97512779430838
71642;BME280;60657;50.122;14.468;2023-05-15T02:32:08;97661.13161619334;;;12.206454566262302;86.45059891660945
71642;BME280;60657;50.122;14.468;2023-05-15T02:35:34;97658.74260765851;;;12.171740291447321;86.77485313191424
71642;BME280;60657;50.122;14.468;2023-05-15T02:38:52;97660.52179746183;;;12.123674372472728;86.58411535820554
71642;BME280;60657;50.122;14.468;2023-05-15T02:42:08;97663.04420292216;;;12.118333714808884;86.75387197680628
71642;BME280;60657;50.122;14.468;2023-05-15T02:45:22;97648.91721771177;;;12.064927138170447;86.71381704432746
71642;BME280;60657;50.122;14.468;2023-05-15T02:48:34;97642.19870453491;;;12.129015030136571;86.69092851148241
71642;BME280;60657;50.122;14.468;2023-05-15T02:51:50;97649.81944207223;;;12.083619439993896;86.80346379797055
71642;BME280;60657;50.122;14.468;2023-05-15T02:55:01;97635.69364525864;;;12.121004043640802;86.79011215381094
71642;BME280;60657;50.122;14.468;2023-05-15T02:58:13;97628.25921960907;;;12.043564507515072;86.61844815747311
71642;BME280;60657;50.122;14.468;2023-05-15T03:01:24;97626.63948872153;;;12.019531548027771;87.05333028152896
71642;BME280;60657;50.122;14.468;2023-05-15T03:04:36;97640.81613953503;;;11.998168917372396;87.19447623407339
71642;BME280;60657;50.122;14.468;2023-05-15T03:07:48;97622.52411099704;;;11.998168917372396;86.96559090562295
71642;BME280;60657;50.122;14.468;2023-05-15T03:10:59;97619.23187542625;;;11.926070038910503;86.92172121766994
71642;BME280;60657;50.122;14.468;2023-05-15T03:14:10;97618.3560669324;;;11.976806286717022;87.06286717021439
71642;BME280;60657;50.122;14.468;2023-05-15T03:17:22;97622.65473204153;;;11.888685435263596;87.2974746318761
71642;BME280;60657;50.122;14.468;2023-05-15T03:20:33;97621.77964966676;;;11.91805905241474;87.27649347676814
71642;BME280;60657;50.122;14.468;2023-05-15T03:23:44;97617.53303926521;;;11.974135957885096;87.21736476691844
71642;BME280;60657;50.122;14.468;2023-05-15T03:26:55;97609.27655824006;;;11.926070038910503;87.04760814831769
71642;BME280;60657;50.122;14.468;2023-05-15T03:30:07;97605.16170615346;;;11.845960173952847;87.14297703517205
71642;BME280;60657;50.122;14.468;2023-05-15T03:33:19;97606.0373259699;;;11.872663462272065;87.24216067750058
71642;BME280;60657;50.122;14.468;2023-05-15T03:36:30;97601.09949389899;;;11.853971160448616;87.1658655680171
71642;BME280;60657;50.122;14.468;2023-05-15T03:39:42;97589.44703032922;;;11.85130083161669;86.98466468299382
71642;BME280;60657;50.122;14.468;2023-05-15T03:42:53;97596.87947989747;;;11.926070038910503;86.9579613946746
71642;BME280;60657;50.122;14.468;2023-05-15T03:46:05;97590.40131528553;;;11.803234912642097;87.12390325780117
71642;BME280;60657;50.122;14.468;2023-05-15T03:49:16;97585.61844631752;;;11.653696498054472;87.19256885633631
71642;BME280;60657;50.122;14.468;2023-05-15T03:52:27;97588.21385745468;;;11.62165255207141;87.5759517814908
71642;BME280;60657;50.122;14.468;2023-05-15T03:55:39;97584.8715868378;;;11.667048142214085;87.37567711909666
71642;BME280;60657;50.122;14.468;2023-05-15T03:58:51;97582.42785969078;;;11.597619592584117;87.37949187457085
71642;BME280;60657;50.122;14.468;2023-05-15T04:02:02;97582.47792677362;;;11.546883344777598;87.72091248950942
71642;BME280;60657;50.122;14.468;2023-05-15T04:05:14;97594.05005698335;;;11.613641565575648;87.65224689097428
71642;BME280;60657;50.122;14.468;2023-05-15T04:08:25;97580.75678968099;;;11.60296025024796;87.85824368657968
71642;BME280;60657;50.122;14.468;2023-05-15T04:11:37;97584.02335366335;;;11.597619592584117;87.92690928511482
71642;BME280;60657;50.122;14.468;2023-05-15T04:14:48;97576.51530461248;;;11.653696498054472;87.84489204242008
71642;BME280;60657;50.122;14.468;2023-05-15T04:17:59;97579.85792133534;;;11.651026169222554;87.70183871213855
71642;BME280;60657;50.122;14.468;2023-05-15T04:21:11;97575.64112531708;;;11.594949263752191;87.74189364461738
71642;BME280;60657;50.122;14.468;2023-05-15T04:24:22;97577.28686112033;;;11.640344853894867;87.60074769207294
71642;BME280;60657;50.122;14.468;2023-05-15T04:27:33;97569.05833054903;;;11.632333867399097;87.7972075989929
71642;BME280;60657;50.122;14.468;2023-05-15T04:30:45;97573.14680043182;;;11.675059128709847;87.55115587090867
71642;BME280;60657;50.122;14.468;2023-05-15T04:33:56;97570.65247769249;;;11.712443732356753;87.58358129243915
71642;BME280;60657;50.122;14.468;2023-05-15T04:37:07;97568.15815709911;;;11.643015182726785;87.60265506981003
71642;BME280;60657;50.122;14.468;2023-05-15T04:40:19;97574.74070371753;;;11.68841077286946;87.58930342565041
71642;BME280;60657;50.122;14.468;2023-05-15T04:43:30;97568.79743116946;;;11.72312504768444;87.30319676508736
71642;BME280;60657;50.122;14.468;2023-05-15T04:46:46;97567.09877758696;;;11.797894254978253;87.38902876325628
71642;BME280;60657;50.122;14.468;2023-05-15T04:49:57;97565.5329270947;;;11.733806363012128;87.42717631799802
71642;BME280;60657;50.122;14.468;2023-05-15T04:53:08;97563.88745908381;;;11.760509651331347;87.31654840924696
71642;BME280;60657;50.122;14.468;2023-05-15T04:56:20;97559.02973004984;;;11.669718471046004;87.57213702601663
71642;BME280;60657;50.122;14.468;2023-05-15T04:59:31;97563.14345323914;;;11.747158007171741;87.66750591287098
71642;BME280;60657;50.122;14.468;2023-05-15T05:02:43;97555.63401087676;;;11.752498664835585;87.57213702601663
71642;BME280;60657;50.122;14.468;2023-05-15T05:05:55;97553.9091974607;;;11.701762417029066;87.37758449683375
71642;BME280;60657;50.122;14.468;2023-05-15T05:09:06;97550.69797303162;;;11.699092088197148;87.70374608987564
71642;BME280;60657;50.122;14.468;2023-05-15T05:12:17;97562.26832354534;;;11.699092088197148;87.54924849317159
71642;BME280;60657;50.122;14.468;2023-05-15T05:15:29;97553.8825414687;;;11.779201953154804;87.60456244754711
71642;BME280;60657;50.122;14.468;2023-05-15T05:18:40;97550.59201015334;;;11.74982833600366;87.42526894026093
71642;BME280;60657;50.122;14.468;2023-05-15T05:21:51;97557.99578902288;;;11.725795376516366;87.22880903334097
71642;BME280;60657;50.122;14.468;2023-05-15T05:25:03;97554.75842787925;;;11.70710307469291;87.44625009536888
71642;BME280;60657;50.122;14.468;2023-05-15T05:28:15;97553.03317030007;;;11.752498664835585;87.35278858625162
71642;BME280;60657;50.122;14.468;2023-05-15T05:31:27;97548.9200795274;;;11.72312504768444;87.36232547493705
71642;BME280;60657;50.122;14.468;2023-05-15T05:34:38;97551.38792286953;;;11.74982833600366;87.31845578698406
71642;BME280;60657;50.122;14.468;2023-05-15T05:37:50;97554.7849211965;;;11.733806363012128;87.45578698405433
71642;BME280;60657;50.122;14.468;2023-05-15T05:41:01;97543.93097017959;;;11.74982833600366;87.47867551689937
71642;BME280;60657;50.122;14.468;2023-05-15T05:44:13;97553.03317030007;;;11.752498664835585;87.33562218661784
71642;BME280;60657;50.122;14.468;2023-05-15T05:47:24;97548.94676674207;;;11.70710307469291;87.67132066834516
71642;BME280;60657;50.122;14.468;2023-05-15T05:50:38;97552.31692402992;;;11.728465705348285;87.58167391470207
71642;BME280;60657;50.122;14.468;2023-05-15T05:53:49;97543.32036083548;;;11.643015182726785;87.78004119935912
71642;BME280;60657;50.122;14.468;2023-05-15T05:57:01;97544.14300023622;;;11.66437781338216;87.84679942015717
71642;BME280;60657;50.122;14.468;2023-05-15T06:00:13;97539.15483638848;;;11.66437781338216;87.92118715190357
71642;BME280;60657;50.122;14.468;2023-05-15T06:03:25;97541.51674973014;;;11.693751430533304;87.9726863508049
71642;BME280;60657;50.122;14.468;2023-05-15T06:06:37;97536.60791404425;;;11.720454718852523;87.8124666208896
71642;BME280;60657;50.122;14.468;2023-05-15T06:09:48;97539.84493322723;;;11.696421759365222;88.07568474860761
71642;BME280;60657;50.122;14.468;2023-05-15T06:13:00;97540.66749406699;;;11.699092088197148;88.24734874494546
71642;BME280;60657;50.122;14.468;2023-05-15T06:16:11;97543.16190816995;;;11.683070115205616;88.26070038910505
71642;BME280;60657;50.122;14.468;2023-05-15T06:19:22;97538.94186941726;;;11.752498664835585;88.17105363546197
71642;BME280;60657;50.122;14.468;2023-05-15T06:22:34;97539.6558179185;;;11.760509651331347;88.11192492561227
71642;BME280;60657;50.122;14.468;2023-05-15T06:25:46;97538.80597359051;;;11.789883268482491;88.02990768291752
71642;BME280;60657;50.122;14.468;2023-05-15T06:28:58;97536.22838937049;;;11.840619516289003;88.06996261539635
71642;BME280;60657;50.122;14.468;2023-05-15T06:32:09;97535.40595647578;;;11.821927214465553;88.16533150225071
71642;BME280;60657;50.122;14.468;2023-05-15T06:35:21;97537.78969370424;;;11.85130083161669;87.77813382162203
71642;BME280;60657;50.122;14.468;2023-05-15T06:38:32;97531.0414663178;;;11.963454642557409;87.71519035629817
71642;BME280;60657;50.122;14.468;2023-05-15T06:41:43;97525.99336549004;;;12.006179903868166;87.47676813916227
71642;BME280;60657;50.122;14.468;2023-05-15T06:44:55;97526.92986091114;;;11.915388723582815;88.00701915007248
71642;BME280;60657;50.122;14.468;2023-05-15T06:48:07;97525.11350536249;;;12.019531548027771;87.59884031433585
71642;BME280;60657;50.122;14.468;2023-05-15T06:51:18;97527.63791601693;;;12.006179903868166;87.64652475776303
71642;BME280;60657;50.122;14.468;2023-05-15T06:54:34;97525.08458114283;;;12.01152056153201;87.74952315556573
71642;BME280;60657;50.122;14.468;2023-05-15T06:57:46;97516.53952419564;;;12.150377660791946;87.64271000228885
71642;BME280;60657;50.122;14.468;2023-05-15T07:00:57;97516.38933774339;;;12.273212787060352;87.59884031433585
71642;BME280;60657;50.122;14.468;2023-05-15T07:04:09;97518.70304848664;;;12.38536659800107;87.36804760814832
71642;BME280;60657;50.122;14.468;2023-05-15T07:07:20;97524.36458066877;;;12.366674296177614;87.22117952239262
71642;BME280;60657;50.122;14.468;2023-05-15T07:10:32;97509.7885492286;;;12.580300602731363;86.8530556191348
71642;BME280;60657;50.122;14.468;2023-05-15T07:13:43;97513.04311497253;;;12.577630273899445;86.53452353704128
71642;BME280;60657;50.122;14.468;2023-05-15T07:16:55;97515.34409011496;;;12.703135728999769;86.37430380712597
71642;BME280;60657;50.122;14.468;2023-05-15T07:20:06;97514.58834166659;;;12.639047837033644;86.40672922865645
71642;BME280;60657;50.122;14.468;2023-05-15T07:23:18;97516.92120022442;;;12.724498359655144;86.38574807354848
71642;BME280;60657;50.122;14.468;2023-05-15T07:26:30;97509.12099810399;;;12.903410391393912;86.4582284275578
71642;BME280;60657;50.122;14.468;2023-05-15T07:29:42;97511.55149667246;;;12.852674143587393;85.76966506446936
71642;BME280;60657;50.122;14.468;2023-05-15T07:32:53;97518.12441125093;;;12.988860914015412;85.68764782177462
71642;BME280;60657;50.122;14.468;2023-05-15T07:36:05;97513.77351617816;;;13.050278477149618;85.93751430533302
71642;BME280;60657;50.122;14.468;2023-05-15T07:39:16;97518.73785660458;;;12.988860914015412;85.7067215991455
71642;BME280;60657;50.122;14.468;2023-05-15T07:42:30;97521.13246177745;;;13.031586175326161;85.62470435645075
71642;BME280;60657;50.122;14.468;2023-05-15T07:45:42;97520.20506038613;;;13.079652094300755;85.40344853894865
71642;BME280;60657;50.122;14.468;2023-05-15T07:48:53;97521.13246177745;;;13.127718013275349;85.43968871595331
71642;BME280;60657;50.122;14.468;2023-05-15T07:52:05;97516.88352445216;;;13.183794918745711;85.72007324330511
71642;BME280;60657;50.122;14.468;2023-05-15T07:55:17;97513.09314556295;;;13.357366292820629;85.42061493858243
71642;BME280;60657;50.122;14.468;2023-05-15T07:58:31;97510.25869886059;;;13.469520103761347;85.23178454261082
71642;BME280;60657;50.122;14.468;2023-05-15T08:01:42;97513.94716229767;;;13.667124437323565;84.88273441672389
71642;BME280;60657;50.122;14.468;2023-05-15T08:04:53;97509.8796837632;;;13.592355230029753;84.20943007553215
71642;BME280;60657;50.122;14.468;2023-05-15T08:08:05;97518.71951956094;;;13.720531013962002;83.1279468986038
71642;BME280;60657;50.122;14.468;2023-05-15T08:11:21;97506.79218413445;;;13.851377126726177;83.31296253910125
71642;BME280;60657;50.122;14.468;2023-05-15T08:14:38;97513.03945952775;;;13.990234225986114;82.759822995346
71642;BME280;60657;50.122;14.468;2023-05-15T08:17:59;97509.30569611026;;;14.190508888380258;83.44457160296025
71642;BME280;60657;50.122;14.468;2023-05-15T08:21:23;97513.81212492233;;;14.332036316472113;82.6129549095903
71642;BME280;60657;50.122;14.468;2023-05-15T08:24:37;97507.29238223893;;;14.588387884336612;82.13801785305562
71642;BME280;60657;50.122;14.468;2023-05-15T08:27:49;97504.25419899797;;;14.727244983596549;82.47562371252003
71642;BME280;60657;50.122;14.468;2023-05-15T08:31:01;97511.86223213852;;;14.72457465476463;81.18432898451209
71642;BME280;60657;50.122;14.468;2023-05-15T08:34:17;97518.64863034498;;;14.679179064621955;80.31647211413748
71642;BME280;60657;50.122;14.468;2023-05-15T08:37:33;97515.1889126057;;;14.639124132143131;80.7856870374609
71642;BME280;60657;50.122;14.468;2023-05-15T08:40:45;97520.52812177478;;;14.866102082856486;80.69413290608072
71642;BME280;60657;50.122;14.468;2023-05-15T08:44:00;97516.788612361;;;15.012970168612192;81.01838712138552
71642;BME280;60657;50.122;14.468;2023-05-15T08:47:19;97515.64280315838;;;15.114442664225223;79.98840314335851
71642;BME280;60657;50.122;14.468;2023-05-15T08:50:31;97514.77566695648;;;15.114442664225223;80.24208438239108
71642;BME280;60657;50.122;14.468;2023-05-15T08:53:42;97521.63663355044;;;15.333409628442816;80.27832455939574
71642;BME280;60657;50.122;14.468;2023-05-15T08:56:55;97527.26786355542;;;15.143816281376367;79.04043640802625
71642;BME280;60657;50.122;14.468;2023-05-15T09:00:13;97530.41966739953;;;14.900816357671474;79.22735942626078
71642;BME280;60657;50.122;14.468;2023-05-15T09:03:36;97533.06227286419;;;14.890135042343786;79.26359960326543
71642;BME280;60657;50.122;14.468;2023-05-15T09:06:57;97529.64446327212;;;14.879453727016099;78.91073472190432
71642;BME280;60657;50.122;14.468;2023-05-15T09:10:20;97533.24184597305;;;14.794003204394599;79.58594644083314
71642;BME280;60657;50.122;14.468;2023-05-15T09:13:39;97531.60059841046;;;14.740596627756162;79.89684901197833
71642;BME280;60657;50.122;14.468;2023-05-15T09:16:50;97539.25347003667;;;14.748607614251924;80.1676966506447
71642;BME280;60657;50.122;14.468;2023-05-15T09:20:04;97542.62476384733;;;14.764629587243455;81.02792401007096
71642;BME280;60657;50.122;14.468;2023-05-15T09:23:24;97545.78234093943;;;14.489585717555507;80.10284580758373
71642;BME280;60657;50.122;14.468;2023-05-15T09:26:37;97543.65872528359;;;14.348058289463644;80.47859922178988
71642;BME280;60657;50.122;14.468;2023-05-15T09:29:49;97543.00517384018;;;14.310673685816738;81.23773556115053
71642;BME280;60657;50.122;14.468;2023-05-15T09:33:01;97556.34977385186;;;14.219882505531395;80.82764934767681
71642;BME280;60657;50.122;14.468;2023-05-15T09:36:13;97550.39435832712;;;14.324025329976351;81.46662088960097
71642;BME280;60657;50.122;14.468;2023-05-15T09:39:32;97555.0257588193;;;14.4281681544213;81.2281986724651
71642;BME280;60657;50.122;14.468;2023-05-15T09:42:44;97551.82643097814;;;14.377431906614788;80.65980010681315
71642;BME280;60657;50.122;14.468;2023-05-15T09:46:02;97555.1104465733;;;14.412146181429769;81.14999618524453
71642;BME280;60657;50.122;14.468;2023-05-15T09:49:14;97560.37230328617;;;14.361409933623257;81.34264133669032
71642;BME280;60657;50.122;14.468;2023-05-15T09:52:26;97555.71904019914;;;14.553673609521631;81.41321431296254
71642;BME280;60657;50.122;14.468;2023-05-15T09:55:39;97556.0212109486;;;14.740596627756162;81.78515297169452
71642;BME280;60657;50.122;14.468;2023-05-15T09:58:52;97564.01431220946;;;14.569695582513162;81.09849698634318
71642;BME280;60657;50.122;14.468;2023-05-15T10:02:07;97561.1643934508;;;14.748607614251924;81.67833981841764
71642;BME280;60657;50.122;14.468;2023-05-15T10:05:19;97556.15208605285;;;14.703212024109256;79.46768902113375
71642;BME280;60657;50.122;14.468;2023-05-15T10:08:30;97550.4059741313;;;14.660486762798506;80.81811245899138
71642;BME280;60657;50.122;14.468;2023-05-15T10:11:43;97549.14657544739;;;14.842069123369193;81.04127565423056
71642;BME280;60657;50.122;14.468;2023-05-15T10:15:01;97560.91894777342;;;15.08239871824216;79.98649576562143
71642;BME280;60657;50.122;14.468;2023-05-15T10:18:15;97568.9431501756;;;15.157167925535973;78.96032654306859
71642;BME280;60657;50.122;14.468;2023-05-15T10:21:33;97562.50068198077;;;15.36278324559396;79.58785381857022
71642;BME280;60657;50.122;14.468;2023-05-15T10:24:46;97560.52323642676;;;15.731288624399177;79.83199816891737
71642;BME280;60657;50.122;14.468;2023-05-15T10:28:10;97547.87326432677;;;15.723277637903408;76.27092393377585
71642;BME280;60657;50.122;14.468;2023-05-15T10:31:22;97539.22149474017;;;15.902189669642176;77.05104142824445
71642;BME280;60657;50.122;14.468;2023-05-15T10:34:36;97540.45534259689;;;15.955596246280614;76.36820019836729
71642;BME280;60657;50.122;14.468;2023-05-15T10:37:48;97550.85385778832;;;15.82207980468452;75.44502937361715
71642;BME280;60657;50.122;14.468;2023-05-15T10:41:00;97545.57937937068;;;15.936903944457157;74.61532005798428
71642;BME280;60657;50.122;14.468;2023-05-15T10:44:12;97542.70995995388;;;16.067750057221332;76.70962081330586
71642;BME280;60657;50.122;14.468;2023-05-15T10:47:26;97549.67410556077;;;16.225299458304725;74.7164110780499
71642;BME280;60657;50.122;14.468;2023-05-15T10:50:39;97539.15944585016;;;16.55374990463111;73.1103990234226
71642;BME280;60657;50.122;14.468;2023-05-15T10:53:51;97539.75969751348;;;16.700617990386817;72.45426108186466
71642;BME280;60657;50.122;14.468;2023-05-15T10:57:04;97538.98089612389;;;16.871519035629817;72.51911192492561
71642;BME280;60657;50.122;14.468;2023-05-15T11:00:23;97530.22091934319;;;16.96231021591516;70.38094148165102
71642;BME280;60657;50.122;14.468;2023-05-15T11:03:38;97533.55515334655;;;16.951628900587473;71.05233844510568
71642;BME280;60657;50.122;14.468;2023-05-15T11:06:50;97530.63880915534;;;17.066453040360116;70.85015640497444
71642;BME280;60657;50.122;14.468;2023-05-15T11:10:38;97521.33865466136;;;17.101167315175097;69.50545510032806
71642;BME280;60657;50.122;14.468;2023-05-15T11:14:22;97517.2422397206;;;17.245365072098878;71.26024261844816
71642;BME280;60657;50.122;14.468;2023-05-15T11:17:34;97517.92177521267;;;17.53376058594644;70.00900282291906
71642;BME280;60657;50.122;14.468;2023-05-15T11:21:04;97509.94271862702;;;17.571145189593345;70.18829633020523
71642;BME280;60657;50.122;14.468;2023-05-15T11:24:16;97517.10293459642;;;17.453650720988783;69.23460746166171
71642;BME280;60657;50.122;14.468;2023-05-15T11:27:28;97523.56334120221;;;17.01304646372168;69.19455252918289
71642;BME280;60657;50.122;14.468;2023-05-15T11:30:42;97510.80562021471;;;16.959639887083235;71.84008545052262
71642;BME280;60657;50.122;14.468;2023-05-15T11:33:53;97514.71172198992;;;16.721980621042192;73.05508506904708
71642;BME280;60657;50.122;14.468;2023-05-15T11:37:08;97517.90019171315;;;16.59647516594186;73.32211795223927
71642;BME280;60657;50.122;14.468;2023-05-15T11:40:28;97515.98224904276;;;16.633859769588767;73.74746318760967
71642;BME280;60657;50.122;14.468;2023-05-15T11:43:41;97514.08020710773;;;16.457618066681924;75.3057907988098